createdAt,value
2022-12-17T00:01:06.770Z,34.70
2022-12-17T00:03:52.450Z,40.00
2022-12-17T00:06:38.723Z,35.88
2022-12-17T00:09:23.969Z,38.95
2022-12-17T00:12:09.443Z,29.23
2022-12-17T00:14:54.876Z,28.02
2022-12-17T00:17:41.303Z,35.70
2022-12-17T00:20:27.175Z,29.42
2022-12-17T00:26:09.881Z,36.17
2022-12-17T00:28:55.335Z,32.28
2022-12-17T00:31:41.369Z,35.92
2022-12-17T00:34:26.809Z,39.95
2022-12-17T00:37:12.117Z,33.10
2022-12-17T00:39:59.386Z,31.55
2022-12-17T00:42:44.774Z,34.03
2022-12-17T00:45:30.128Z,34.03
2022-12-17T00:48:15.714Z,38.38
2022-12-17T00:51:01.145Z,33.60
2022-12-17T00:53:46.503Z,41.78
2022-12-17T00:56:31.815Z,30.05
2022-12-17T00:59:17.242Z,46.60
2022-12-17T01:02:02.619Z,32.92
2022-12-17T01:04:47.964Z,38.45
2022-12-17T01:07:50.080Z,33.92
2022-12-17T01:10:35.268Z,39.03
2022-12-17T01:13:20.697Z,37.75
2022-12-17T01:16:06.100Z,37.20
2022-12-17T01:18:51.487Z,38.45
2022-12-17T01:21:36.865Z,33.78
2022-12-17T01:24:22.281Z,39.97
2022-12-17T01:27:07.761Z,36.30
2022-12-17T01:29:53.040Z,29.50
2022-12-17T01:32:38.404Z,28.80
2022-12-17T01:35:24.600Z,32.42
2022-12-17T01:38:09.816Z,35.30
2022-12-17T01:40:55.285Z,35.70
2022-12-17T01:43:51.478Z,32.78
2022-12-17T01:46:37.566Z,32.45
2022-12-17T01:49:23.334Z,27.67
2022-12-17T01:52:10.841Z,31.42
2022-12-17T01:54:57.802Z,27.60
2022-12-17T01:57:44.562Z,22.63
2022-12-17T02:00:35.926Z,21.77
2022-12-17T02:03:21.404Z,23.77
2022-12-17T02:06:09.961Z,24.20
2022-12-17T02:09:18.954Z,24.25
2022-12-17T02:12:34.362Z,19.15
2022-12-17T02:15:31.619Z,18.63
2022-12-17T02:18:23.321Z,22.92
2022-12-17T02:21:12.271Z,14.40
2022-12-17T02:24:20.010Z,19.85
2022-12-17T02:27:29.955Z,18.85
2022-12-17T02:30:22.967Z,22.98
2022-12-17T02:33:09.343Z,19.02
2022-12-17T02:36:04.988Z,24.52
2022-12-17T02:38:51.439Z,19.65
2022-12-17T02:41:47.521Z,29.02
2022-12-17T02:44:35.382Z,21.75
2022-12-17T02:47:24.586Z,19.98
2022-12-17T02:50:10.112Z,17.65
2022-12-17T02:52:58.548Z,17.42
2022-12-17T02:55:43.820Z,22.92
2022-12-17T02:58:29.324Z,23.13
2022-12-17T03:01:14.625Z,19.00
2022-12-17T03:04:00.109Z,24.55
2022-12-17T03:06:45.517Z,23.13
2022-12-17T03:09:30.892Z,19.77
2022-12-17T03:12:16.310Z,22.80
2022-12-17T03:15:01.716Z,21.83
2022-12-17T03:17:48.379Z,19.75
2022-12-17T03:20:33.868Z,23.13
2022-12-17T03:23:28.078Z,23.60
2022-12-17T03:26:16.184Z,25.88
2022-12-17T03:29:01.560Z,23.95
2022-12-17T03:31:47.044Z,18.65
2022-12-17T03:34:32.225Z,21.58
2022-12-17T03:37:17.628Z,20.38
2022-12-17T03:40:02.944Z,19.25
2022-12-17T03:42:48.269Z,29.77
2022-12-17T03:45:33.649Z,22.38
2022-12-17T03:48:27.139Z,23.38
2022-12-17T03:51:13.049Z,21.77
2022-12-17T03:56:44.245Z,17.00
2022-12-17T03:59:30.247Z,20.05
2022-12-17T04:02:15.830Z,20.70
2022-12-17T04:05:01.532Z,21.63
2022-12-17T04:07:47.267Z,17.85
2022-12-17T04:10:32.560Z,25.63
2022-12-17T04:13:18.001Z,23.85
2022-12-17T04:16:03.570Z,17.08
2022-12-17T04:18:48.938Z,22.00
2022-12-17T04:21:34.383Z,21.67
2022-12-17T04:24:19.670Z,20.15
2022-12-17T04:27:05.091Z,28.17
2022-12-17T04:29:50.509Z,17.67
2022-12-17T04:32:35.859Z,23.63
2022-12-17T04:35:21.365Z,34.40
2022-12-17T04:38:06.862Z,25.63
2022-12-17T04:40:52.169Z,24.10
2022-12-17T04:43:37.740Z,27.63
2022-12-17T04:51:53.567Z,24.23
2022-12-17T04:54:39.040Z,32.92
2022-12-17T04:57:24.437Z,23.15
2022-12-17T05:00:09.854Z,19.38
2022-12-17T05:02:55.484Z,24.35
2022-12-17T05:05:40.679Z,21.80
2022-12-17T05:08:25.975Z,23.65
2022-12-17T05:11:11.203Z,25.05
2022-12-17T05:13:56.762Z,24.52
2022-12-17T05:16:42.169Z,23.95
2022-12-17T05:19:27.491Z,17.15
2022-12-17T05:22:13.013Z,28.10
2022-12-17T05:24:58.285Z,20.73
2022-12-17T05:27:43.858Z,20.92
2022-12-17T05:30:29.471Z,23.08
2022-12-17T05:33:21.942Z,25.25
2022-12-17T05:36:07.325Z,24.88
2022-12-17T05:38:52.737Z,22.45
2022-12-17T05:41:38.011Z,22.83
2022-12-17T05:44:23.400Z,20.55
2022-12-17T05:47:08.734Z,21.67
2022-12-17T05:49:53.983Z,22.90
2022-12-17T05:52:55.557Z,24.52
2022-12-17T05:55:40.869Z,26.98
2022-12-17T05:58:29.272Z,24.25
2022-12-17T06:01:20.823Z,20.15
2022-12-17T06:04:06.390Z,14.75
2022-12-17T06:06:52.099Z,20.73
2022-12-17T06:09:37.594Z,21.15
2022-12-17T06:12:22.975Z,20.58
2022-12-17T06:15:08.264Z,18.63
2022-12-17T06:17:53.898Z,22.17
2022-12-17T06:20:39.244Z,17.90
2022-12-17T06:23:28.325Z,18.58
2022-12-17T06:26:15.321Z,18.48
2022-12-17T06:29:01.677Z,18.48
2022-12-17T06:31:47.022Z,19.48
2022-12-17T06:34:32.216Z,18.95
2022-12-17T06:37:17.689Z,18.45
2022-12-17T06:40:03.133Z,16.90
2022-12-17T06:42:48.553Z,28.67
2022-12-17T06:45:33.937Z,22.92
2022-12-17T06:48:24.079Z,23.20
2022-12-17T06:51:09.390Z,19.17
2022-12-17T06:53:54.789Z,19.63
2022-12-17T06:56:40.147Z,22.38
2022-12-17T06:59:25.551Z,24.52
2022-12-17T07:02:10.903Z,20.15
2022-12-17T07:04:56.237Z,21.63
2022-12-17T07:07:41.480Z,14.27
2022-12-17T07:10:26.801Z,15.73
2022-12-17T07:13:12.292Z,21.65
2022-12-17T07:15:57.650Z,24.05
2022-12-17T07:18:43.008Z,21.83
2022-12-17T07:21:28.480Z,18.80
2022-12-17T07:24:13.885Z,17.63
2022-12-17T07:26:59.307Z,14.80
2022-12-17T07:29:44.634Z,24.13
2022-12-17T07:32:30.010Z,19.95
2022-12-17T07:35:15.488Z,20.63
2022-12-17T07:38:00.882Z,19.75
2022-12-17T07:40:46.198Z,20.38
2022-12-17T07:43:32.589Z,18.73
2022-12-17T07:46:18.003Z,17.70
2022-12-17T07:49:03.807Z,22.48
2022-12-17T07:51:49.149Z,18.88
2022-12-17T07:54:34.525Z,23.50
2022-12-17T07:57:19.813Z,16.35
2022-12-17T08:00:05.130Z,21.10
2022-12-17T08:02:50.657Z,20.92
2022-12-17T08:05:36.046Z,29.52
2022-12-17T08:08:28.646Z,25.55
2022-12-17T08:11:14.150Z,24.70
2022-12-17T08:13:59.424Z,27.13
2022-12-17T08:16:44.974Z,22.05
2022-12-17T08:19:31.889Z,26.52
2022-12-17T08:22:17.384Z,24.80
2022-12-17T08:25:02.940Z,21.25
2022-12-17T08:27:48.702Z,20.52
2022-12-17T08:30:34.121Z,21.52
2022-12-17T08:33:23.239Z,23.67
2022-12-17T08:36:15.931Z,24.73
2022-12-17T08:39:01.357Z,17.40
2022-12-17T08:41:52.674Z,27.52
2022-12-17T08:44:39.802Z,24.33
2022-12-17T08:47:25.229Z,25.65
2022-12-17T08:50:10.477Z,17.65
2022-12-17T08:52:55.894Z,21.95
2022-12-17T08:55:41.234Z,25.15
2022-12-17T08:58:27.315Z,21.83
2022-12-17T09:01:12.598Z,19.45
2022-12-17T09:03:58.031Z,24.38
2022-12-17T09:06:43.384Z,19.83
2022-12-17T09:09:28.770Z,20.45
2022-12-17T09:12:14.154Z,20.67
2022-12-17T09:14:59.506Z,22.17
2022-12-17T09:17:44.896Z,16.63
2022-12-17T09:20:30.238Z,24.90
2022-12-17T09:23:15.537Z,26.52
2022-12-17T09:26:01.091Z,23.15
2022-12-17T09:28:46.339Z,21.13
2022-12-17T09:31:36.950Z,19.80
2022-12-17T09:34:22.503Z,24.77
2022-12-17T09:37:07.879Z,25.20
2022-12-17T09:39:53.089Z,24.05
2022-12-17T09:43:14.633Z,21.45
2022-12-17T09:46:09.370Z,21.27
2022-12-17T09:49:12.707Z,27.92
2022-12-17T09:51:58.276Z,22.95
2022-12-17T09:54:46.595Z,24.80
2022-12-17T09:57:36.856Z,28.48
2022-12-17T10:00:56.216Z,26.90
2022-12-17T10:03:47.021Z,25.23
2022-12-17T10:06:37.575Z,23.17
2022-12-17T10:09:34.833Z,29.90
2022-12-17T10:12:35.592Z,30.77
2022-12-17T10:15:21.844Z,23.05
2022-12-17T10:18:27.398Z,19.35
2022-12-17T10:21:20.453Z,20.45
2022-12-17T10:24:05.569Z,25.00
2022-12-17T10:26:53.134Z,21.70
2022-12-17T10:29:47.697Z,23.63
2022-12-17T10:32:33.355Z,29.65
2022-12-17T10:35:35.759Z,26.60
2022-12-17T10:38:29.889Z,23.63
2022-12-17T10:41:15.188Z,24.88
2022-12-17T10:44:01.946Z,25.25
2022-12-17T10:46:49.096Z,25.00
2022-12-17T10:49:40.564Z,29.58
2022-12-17T10:52:50.517Z,26.75
2022-12-17T10:55:45.237Z,23.00
2022-12-17T10:58:39.361Z,29.30
2022-12-17T11:01:29.267Z,21.63
2022-12-17T11:04:16.877Z,28.58
2022-12-17T11:07:07.229Z,24.23
2022-12-17T11:10:03.689Z,31.35
2022-12-17T11:13:08.644Z,22.90
2022-12-17T11:16:17.495Z,25.23
2022-12-17T11:19:11.423Z,31.90
2022-12-17T11:22:02.493Z,21.10
2022-12-17T11:25:21.478Z,23.75
2022-12-17T11:28:15.225Z,28.08
2022-12-17T11:31:10.617Z,23.17
2022-12-17T11:34:21.908Z,24.20
2022-12-17T11:40:12.646Z,22.77
2022-12-17T11:43:11.861Z,26.50
2022-12-17T11:46:23.302Z,25.08
2022-12-17T11:49:36.404Z,20.85
2022-12-17T11:52:51.209Z,27.50
2022-12-17T11:55:41.275Z,26.30
2022-12-17T11:58:53.737Z,25.40
2022-12-17T12:01:44.938Z,32.58
2022-12-17T12:05:04.548Z,28.88
2022-12-17T12:08:34.086Z,36.55
2022-12-17T12:11:41.592Z,27.42
2022-12-17T12:14:54.338Z,23.45
2022-12-17T12:17:58.357Z,27.17
2022-12-17T12:20:50.035Z,27.20
2022-12-17T12:23:59.534Z,26.40
2022-12-17T12:26:52.208Z,28.25
2022-12-17T12:29:49.237Z,24.42
2022-12-17T12:33:03.227Z,28.38
2022-12-17T12:35:52.136Z,27.48
2022-12-17T12:38:46.378Z,27.77
2022-12-17T12:41:34.947Z,29.00
2022-12-17T12:44:26.862Z,29.38
2022-12-17T12:47:18.958Z,24.02
2022-12-17T12:50:28.278Z,27.25
2022-12-17T12:53:15.297Z,23.20
2022-12-17T12:56:01.602Z,26.55
2022-12-17T12:58:50.138Z,23.17
2022-12-17T13:01:36.267Z,26.55
2022-12-17T13:04:59.491Z,30.05
2022-12-17T13:07:29.692Z,24.02
2022-12-17T13:09:58.644Z,24.67
2022-12-17T13:12:33.306Z,23.95
2022-12-17T13:15:15.539Z,26.52
2022-12-17T13:18:07.510Z,22.42
2022-12-17T13:20:35.166Z,27.25
2022-12-17T13:23:31.017Z,21.60
2022-12-17T13:26:19.229Z,27.17
2022-12-17T13:29:11.623Z,25.00
2022-12-17T13:32:07.072Z,22.70
2022-12-17T13:34:45.623Z,21.30
2022-12-17T13:37:44.480Z,20.85
2022-12-17T13:40:46.779Z,17.45
2022-12-17T13:43:27.189Z,31.38
2022-12-17T13:45:56.711Z,27.48
2022-12-17T13:48:28.792Z,26.65
2022-12-17T13:51:05.481Z,25.13
2022-12-17T13:53:36.088Z,22.55
2022-12-17T13:56:06.517Z,21.33
2022-12-17T13:58:34.826Z,20.45
2022-12-17T14:01:12.314Z,24.25
2022-12-17T14:04:05.251Z,21.63
2022-12-17T14:06:34.863Z,18.98
2022-12-17T14:09:02.591Z,20.63
2022-12-17T14:11:50.279Z,22.02
2022-12-17T14:14:36.243Z,23.15
2022-12-17T14:17:03.292Z,22.45
2022-12-17T14:19:32.126Z,18.85
2022-12-17T14:22:01.531Z,21.90
2022-12-17T14:24:33.021Z,23.10
2022-12-17T14:27:00.933Z,22.70
2022-12-17T14:29:30.518Z,24.67
2022-12-17T14:32:03.245Z,19.10
2022-12-17T14:34:41.499Z,16.05
2022-12-17T14:37:18.487Z,21.88
2022-12-17T14:39:47.779Z,20.08
2022-12-17T14:42:29.277Z,25.17
2022-12-17T14:45:08.355Z,19.63
2022-12-17T14:47:38.021Z,21.77
2022-12-17T14:50:13.391Z,18.92
2022-12-17T14:52:55.466Z,21.75
2022-12-17T14:55:39.547Z,16.92
2022-12-17T14:58:25.990Z,16.98
2022-12-17T15:01:12.051Z,21.85
2022-12-17T15:03:43.966Z,22.83
2022-12-17T15:06:13.389Z,20.88
2022-12-17T15:08:42.763Z,19.73
2022-12-17T15:11:12.768Z,18.95
2022-12-17T15:13:39.450Z,21.92
2022-12-17T15:16:06.884Z,21.63
2022-12-17T15:18:33.777Z,14.40
2022-12-17T15:21:04.601Z,19.67
2022-12-17T15:23:31.802Z,22.20
2022-12-17T15:25:58.395Z,23.42
2022-12-17T15:28:25.295Z,15.75
2022-12-17T15:30:52.213Z,20.50
2022-12-17T15:33:18.926Z,16.90
2022-12-17T15:35:45.574Z,19.42
2022-12-17T15:38:12.806Z,22.02
2022-12-17T15:40:39.939Z,15.43
2022-12-17T15:43:11.276Z,20.80
2022-12-17T15:45:47.594Z,33.67
2022-12-17T15:48:17.816Z,22.75
2022-12-17T15:50:44.517Z,21.10
2022-12-17T15:53:11.107Z,23.65
2022-12-17T15:55:38.372Z,17.50
2022-12-17T15:58:06.400Z,18.83
2022-12-17T16:00:33.099Z,23.08
2022-12-17T16:02:59.861Z,19.10
2022-12-17T16:05:26.905Z,19.17
2022-12-17T16:07:54.242Z,20.65
2022-12-17T16:10:20.946Z,23.05
2022-12-17T16:12:47.689Z,17.10
2022-12-17T16:15:15.442Z,20.70
2022-12-17T16:17:42.147Z,20.02
2022-12-17T16:20:09.720Z,23.02
2022-12-17T16:22:37.117Z,20.17
2022-12-17T16:25:04.918Z,13.85
2022-12-17T16:27:31.694Z,17.88
2022-12-17T16:29:58.337Z,15.48
2022-12-17T16:32:25.328Z,15.95
2022-12-17T16:34:52.676Z,15.00
2022-12-17T16:37:19.316Z,20.10
2022-12-17T16:39:46.348Z,20.58
2022-12-17T16:42:13.114Z,19.15
2022-12-17T16:44:39.773Z,23.10
2022-12-17T16:47:06.393Z,18.85
2022-12-17T16:49:33.240Z,19.30
2022-12-17T16:54:30.793Z,18.67
2022-12-17T16:57:02.100Z,18.35
2022-12-17T16:59:29.285Z,21.42
2022-12-17T17:01:57.273Z,20.95
2022-12-17T17:04:24.650Z,16.95
2022-12-17T17:06:54.185Z,19.95
2022-12-17T17:09:22.007Z,26.17
2022-12-17T17:11:51.691Z,17.17
2022-12-17T17:14:18.866Z,16.80
2022-12-17T17:16:45.601Z,18.40
2022-12-17T17:19:12.200Z,18.50
2022-12-17T17:21:41.793Z,21.23
2022-12-17T17:24:20.354Z,20.13
2022-12-17T17:26:48.673Z,17.60
2022-12-17T17:29:15.407Z,25.20
2022-12-17T17:34:28.999Z,27.80
2022-12-17T17:36:58.198Z,32.40
2022-12-17T17:39:24.883Z,23.67
2022-12-17T17:41:56.256Z,26.15
2022-12-17T17:44:23.076Z,31.30
2022-12-17T17:49:17.458Z,26.90
2022-12-17T17:54:31.592Z,32.28
2022-12-17T17:56:58.374Z,34.05
2022-12-17T17:59:31.216Z,25.15
2022-12-17T18:02:00.740Z,32.25
2022-12-17T18:04:27.827Z,21.23
2022-12-17T18:09:42.566Z,28.73
2022-12-17T18:12:27.880Z,31.08
2022-12-17T18:17:41.572Z,29.60
2022-12-17T18:20:09.676Z,27.95
2022-12-17T18:22:37.017Z,29.63
2022-12-17T18:25:05.137Z,32.50
2022-12-17T18:27:32.387Z,33.15
2022-12-17T18:29:59.635Z,36.80
2022-12-17T18:32:26.625Z,41.10
2022-12-17T18:34:53.307Z,35.50
2022-12-17T18:37:19.976Z,27.20
2022-12-17T18:39:47.285Z,38.10
2022-12-17T18:42:32.435Z,36.33
2022-12-17T18:44:59.072Z,34.97
2022-12-17T18:47:25.850Z,36.78
2022-12-17T18:52:19.428Z,31.63
2022-12-17T18:54:46.104Z,28.63
2022-12-17T18:57:13.267Z,35.33
2022-12-17T18:59:40.805Z,34.30
2022-12-17T19:02:14.167Z,29.50
2022-12-17T19:04:41.463Z,35.63
2022-12-17T19:07:10.162Z,33.17
2022-12-17T19:09:36.991Z,30.88
2022-12-17T19:14:31.098Z,28.25
2022-12-17T19:16:58.111Z,26.20
2022-12-17T19:19:25.193Z,27.70
2022-12-17T19:21:54.845Z,24.95
2022-12-17T19:24:22.876Z,25.20
2022-12-17T19:26:50.330Z,27.90
2022-12-17T19:29:18.124Z,20.40
2022-12-17T19:31:45.643Z,25.40
2022-12-17T19:34:14.997Z,21.50
2022-12-17T19:36:42.602Z,21.33
2022-12-17T19:39:13.104Z,26.33
2022-12-17T19:41:40.044Z,21.23
2022-12-17T19:44:10.698Z,24.58
2022-12-17T19:46:37.393Z,26.85
2022-12-17T19:49:04.755Z,24.13
2022-12-17T19:51:32.907Z,22.65
2022-12-17T19:54:06.493Z,21.52
2022-12-17T19:56:35.898Z,23.63
2022-12-17T19:59:07.131Z,21.73
2022-12-17T20:01:36.928Z,28.75
2022-12-17T20:04:04.628Z,22.40
2022-12-17T20:06:33.593Z,33.53
2022-12-17T20:09:01.142Z,33.25
2022-12-17T20:11:34.336Z,28.17
2022-12-17T20:14:20.841Z,23.90
2022-12-17T20:16:49.910Z,28.88
2022-12-17T20:19:19.750Z,30.10
2022-12-17T20:21:46.807Z,26.08
2022-12-17T20:24:14.197Z,27.67
2022-12-17T20:26:50.202Z,22.83
2022-12-17T20:29:17.807Z,21.20
2022-12-17T20:31:49.530Z,30.50
2022-12-17T20:34:18.679Z,25.05
2022-12-17T20:36:45.383Z,20.90
2022-12-17T20:39:14.189Z,24.85
2022-12-17T20:41:41.883Z,25.67
2022-12-17T20:44:12.410Z,21.77
2022-12-17T20:46:41.261Z,26.27
2022-12-17T20:49:08.607Z,36.78
2022-12-17T20:51:35.480Z,36.58
2022-12-17T20:56:32.087Z,20.42
2022-12-17T20:59:06.580Z,20.13
2022-12-17T21:01:36.160Z,23.55
2022-12-17T21:04:04.432Z,24.23
2022-12-17T21:06:37.550Z,23.05
2022-12-17T21:09:05.373Z,29.85
2022-12-17T21:11:34.011Z,32.03
2022-12-17T21:14:04.612Z,31.80
2022-12-17T21:16:31.836Z,23.02
2022-12-17T21:19:00.579Z,28.33
2022-12-17T21:21:29.895Z,22.90
2022-12-17T21:23:57.414Z,33.60
2022-12-17T21:26:25.495Z,31.58
2022-12-17T21:28:54.530Z,24.33
2022-12-17T21:31:34.069Z,26.70
2022-12-17T21:36:31.438Z,25.20
2022-12-17T21:38:59.145Z,23.80
2022-12-17T21:41:33.863Z,24.23
2022-12-17T21:44:05.839Z,19.05
2022-12-17T21:46:33.108Z,32.90
2022-12-17T21:49:01.754Z,24.77
2022-12-17T21:51:29.612Z,25.17
2022-12-17T21:53:59.422Z,28.15
2022-12-17T21:56:26.612Z,28.05
2022-12-17T21:58:58.845Z,26.10
2022-12-17T22:01:28.566Z,26.65
2022-12-17T22:03:57.486Z,21.35
2022-12-17T22:06:29.570Z,23.52
2022-12-17T22:09:05.563Z,23.02
2022-12-17T22:11:40.045Z,33.65
2022-12-17T22:14:13.792Z,27.90
2022-12-17T22:16:47.230Z,21.60
2022-12-17T22:19:21.975Z,26.70
2022-12-17T22:21:50.283Z,25.33
2022-12-17T22:24:22.706Z,28.95
2022-12-17T22:26:49.370Z,30.35
2022-12-17T22:29:36.441Z,28.60
2022-12-17T22:32:22.987Z,27.65
2022-12-17T22:36:04.181Z,29.60
2022-12-17T22:40:18.331Z,25.73
2022-12-17T22:44:36.666Z,19.48
2022-12-17T22:44:40.586Z,25.00
2022-12-17T22:46:16.920Z,29.02
2022-12-17T22:48:43.886Z,27.52
2022-12-17T22:51:13.257Z,25.55
2022-12-17T22:53:50.075Z,25.50
2022-12-17T22:56:35.155Z,22.98
2022-12-17T22:59:04.654Z,26.58
2022-12-17T23:04:00.546Z,20.00
2022-12-17T23:06:28.462Z,24.92
2022-12-17T23:08:56.200Z,28.02
2022-12-17T23:11:25.296Z,18.08
2022-12-17T23:13:52.910Z,23.00
2022-12-17T23:16:20.460Z,23.50
2022-12-17T23:18:49.148Z,26.98
2022-12-17T23:21:18.822Z,24.42
2022-12-17T23:23:45.717Z,22.33
2022-12-17T23:26:18.388Z,22.80
2022-12-17T23:28:45.584Z,23.67
2022-12-17T23:31:19.406Z,25.50
2022-12-17T23:33:46.779Z,29.33
2022-12-17T23:36:16.657Z,23.30
2022-12-17T23:38:44.142Z,25.02
2022-12-17T23:41:13.658Z,29.42
2022-12-17T23:43:40.709Z,25.42
2022-12-17T23:46:08.611Z,20.90
2022-12-17T23:48:45.069Z,19.42
2022-12-17T23:51:18.565Z,21.05
2022-12-17T23:53:45.370Z,24.08
2022-12-17T23:56:20.566Z,20.50
2022-12-17T23:58:47.938Z,22.77
